Time;durP1;ratioP1;P1;durP2;ratioP2;P2;SDS_P1;SDS_P2;PMS_P1;PMS_P2;Temp;Humidity;BMP_temperature;BMP_pressure;BME280_temperature;BME280_humidity;BME280_pressure;Samples;Min_cycle;Max_cycle;Signal;HPM_P1;HPM_P2
2023/02/18 00:01:48;;;;;;;9.47;2.37;;;;;;;;;;5038267;28;20211;-75
2023/02/18 00:04:16;;;;;;;7.40;2.33;;;;;;;;;;5008132;28;20243;-77
2023/02/18 00:06:43;;;;;;;7.00;1.87;;;;;;;;;;5010733;28;20296;-78
2023/02/18 00:09:11;;;;;;;10.03;2.30;;;;;;;;;;5008927;28;20219;-78
2023/02/18 00:11:36;;;;;;;7.73;2.37;;;;;;;;;;5025159;28;20273;-77
2023/02/18 00:14:03;;;;;;;7.07;2.10;;;;;;;;;;5000240;28;20286;-77
2023/02/18 00:16:29;;;;;;;8.47;2.10;;;;;;;;;;5030431;28;20234;-78
2023/02/18 00:19:05;;;;;;;7.77;2.47;;;;;;;;;;5023786;28;20243;-77
2023/02/18 00:21:36;;;;;;;7.60;2.20;;;;;;;;;;5036491;28;20221;-78
2023/02/18 00:24:05;;;;;;;11.67;2.37;;;;;;;;;;5014235;28;20227;-76
2023/02/18 00:26:36;;;;;;;5.77;1.80;;;;;;;;;;5040317;28;20223;-77
2023/02/18 00:29:04;;;;;;;6.10;1.87;;;;;;;;;;5036604;28;20574;-77
2023/02/18 00:31:32;;;;;;;9.03;2.63;;;;;;;;;;5020987;28;20247;-79
2023/02/18 00:33:59;;;;;;;10.23;2.10;;;;;;;;;;5035105;28;20223;-77
2023/02/18 00:36:27;;;;;;;6.37;2.30;;;;;;;;;;5005565;28;20212;-78
2023/02/18 00:38:54;;;;;;;6.27;1.77;;;;;;;;;;4998956;28;20223;-78
2023/02/18 00:41:23;;;;;;;6.50;1.97;;;;;;;;;;5016959;28;20219;-78
2023/02/18 00:43:51;;;;;;;5.77;2.00;;;;;;;;;;5011532;28;20253;-78
2023/02/18 00:46:18;;;;;;;5.00;1.77;;;;;;;;;;5030157;28;20223;-77
2023/02/18 00:48:46;;;;;;;5.30;1.80;;;;;;;;;;5051428;28;20222;-77
2023/02/18 00:51:12;;;;;;;11.60;1.83;;;;;;;;;;5016115;28;20216;-78
2023/02/18 00:53:37;;;;;;;9.03;2.50;;;;;;;;;;5031165;28;20705;-77
2023/02/18 00:56:03;;;;;;;5.43;1.93;;;;;;;;;;5028325;28;20210;-80
2023/02/18 00:58:29;;;;;;;6.47;1.80;;;;;;;;;;5028671;28;20627;-78
2023/02/18 01:00:59;;;;;;;3.40;1.93;;;;;;;;;;5011858;28;20240;-76
2023/02/18 01:03:27;;;;;;;7.63;1.80;;;;;;;;;;5042367;28;20289;-75
2023/02/18 01:05:53;;;;;;;8.33;2.30;;;;;;;;;;5019564;28;20214;-75
2023/02/18 01:08:19;;;;;;;8.50;1.87;;;;;;;;;;5014379;28;20217;-78
2023/02/18 01:10:48;;;;;;;9.83;2.20;;;;;;;;;;5014405;28;20227;-78
2023/02/18 01:13:16;;;;;;;5.97;1.93;;;;;;;;;;5033072;28;20323;-78
2023/02/18 01:15:43;;;;;;;5.90;2.00;;;;;;;;;;5015405;28;20223;-77
2023/02/18 01:18:11;;;;;;;5.03;1.43;;;;;;;;;;5011818;28;20208;-78
2023/02/18 01:20:37;;;;;;;4.87;1.50;;;;;;;;;;5035832;28;20220;-79
2023/02/18 01:23:08;;;;;;;6.83;2.30;;;;;;;;;;5033473;28;20310;-76
2023/02/18 01:25:36;;;;;;;6.77;1.77;;;;;;;;;;5037142;28;20227;-78
2023/02/18 01:28:10;;;;;;;6.60;1.83;;;;;;;;;;5033193;28;20736;-78
2023/02/18 01:30:36;;;;;;;6.17;1.87;;;;;;;;;;5033827;28;20215;-78
2023/02/18 01:33:05;;;;;;;9.03;1.80;;;;;;;;;;5018533;28;20214;-79
2023/02/18 01:35:33;;;;;;;8.77;1.77;;;;;;;;;;5012694;28;20218;-78
2023/02/18 01:38:01;;;;;;;4.07;1.60;;;;;;;;;;5012275;28;20226;-78
2023/02/18 01:40:28;;;;;;;6.50;1.70;;;;;;;;;;5017868;28;20230;-79
2023/02/18 01:42:55;;;;;;;8.97;2.00;;;;;;;;;;5018511;28;20809;-79
2023/02/18 01:45:36;;;;;;;9.97;2.40;;;;;;;;;;5012308;28;20220;-79
2023/02/18 01:48:10;;;;;;;6.23;1.83;;;;;;;;;;5007597;28;20230;-77
2023/02/18 01:50:38;;;;;;;7.10;2.10;;;;;;;;;;4998828;28;20227;-77
2023/02/18 01:53:04;;;;;;;4.47;1.53;;;;;;;;;;5008230;28;20278;-77
2023/02/18 01:55:32;;;;;;;5.77;1.80;;;;;;;;;;5030291;28;20211;-77
2023/02/18 01:58:00;;;;;;;4.67;1.87;;;;;;;;;;5021174;28;20220;-78
2023/02/18 02:00:29;;;;;;;8.13;1.90;;;;;;;;;;4994346;28;20579;-80
2023/02/18 02:02:57;;;;;;;6.53;1.67;;;;;;;;;;5024445;28;20294;-76
2023/02/18 02:05:25;;;;;;;4.90;1.97;;;;;;;;;;5029928;28;20295;-76
2023/02/18 02:07:53;;;;;;;8.20;1.80;;;;;;;;;;5027613;28;20215;-80
2023/02/18 02:10:21;;;;;;;6.50;2.00;;;;;;;;;;5025792;28;20238;-77
2023/02/18 02:13:01;;;;;;;4.90;1.67;;;;;;;;;;5033595;28;20281;-78
2023/02/18 02:15:29;;;;;;;5.73;1.70;;;;;;;;;;5039836;28;20222;-78
2023/02/18 02:18:28;;;;;;;10.83;2.23;;;;;;;;;;5028275;28;20223;-77
2023/02/18 02:21:17;;;;;;;7.40;1.70;;;;;;;;;;5027016;28;20226;-77
2023/02/18 02:24:14;;;;;;;5.20;1.57;;;;;;;;;;5036094;28;20220;-76
2023/02/18 02:26:42;;;;;;;12.33;2.27;;;;;;;;;;5036404;28;20215;-77
2023/02/18 02:29:38;;;;;;;5.93;1.50;;;;;;;;;;5042906;28;20263;-79
2023/02/18 02:32:38;;;;;;;6.60;1.90;;;;;;;;;;5017409;28;20243;-78
2023/02/18 02:35:15;;;;;;;3.97;1.83;;;;;;;;;;5026836;28;20224;-78
2023/02/18 02:38:15;;;;;;;5.53;1.70;;;;;;;;;;5012874;28;20349;-77
2023/02/18 02:41:00;;;;;;;8.67;1.77;;;;;;;;;;5024115;28;20235;-78
2023/02/18 02:43:52;;;;;;;4.47;1.60;;;;;;;;;;5028566;28;20220;-78
2023/02/18 02:46:27;;;;;;;6.20;1.80;;;;;;;;;;5023126;28;20215;-79
2023/02/18 02:49:26;;;;;;;5.00;1.67;;;;;;;;;;4991377;28;20224;-78
2023/02/18 02:52:07;;;;;;;6.70;1.90;;;;;;;;;;5017379;28;20211;-78
2023/02/18 02:54:35;;;;;;;8.53;1.97;;;;;;;;;;5038057;28;20302;-76
2023/02/18 02:57:16;;;;;;;5.57;1.87;;;;;;;;;;5037644;28;20215;-77
2023/02/18 03:00:08;;;;;;;6.97;1.77;;;;;;;;;;5036911;28;20593;-77
2023/02/18 03:02:52;;;;;;;6.60;1.80;;;;;;;;;;5013570;28;20228;-78
2023/02/18 03:05:49;;;;;;;9.13;1.77;;;;;;;;;;5025198;28;20219;-78
2023/02/18 03:08:24;;;;;;;5.33;1.67;;;;;;;;;;5022741;28;20274;-77
2023/02/18 03:11:02;;;;;;;8.37;1.80;;;;;;;;;;5024731;28;20287;-77
2023/02/18 03:14:07;;;;;;;6.30;1.90;;;;;;;;;;5005966;28;20888;-78
2023/02/18 03:16:49;;;;;;;5.33;1.67;;;;;;;;;;5013416;28;20294;-78
2023/02/18 03:19:17;;;;;;;3.90;1.47;;;;;;;;;;5013928;28;20239;-78
2023/02/18 03:21:47;;;;;;;6.77;1.80;;;;;;;;;;5009999;28;20220;-77
2023/02/18 03:24:45;;;;;;;6.43;1.93;;;;;;;;;;5007175;28;20314;-77
2023/02/18 03:27:51;;;;;;;6.23;1.53;;;;;;;;;;5034637;28;20224;-77
2023/02/18 03:30:23;;;;;;;5.27;1.83;;;;;;;;;;5037924;28;20230;-78
2023/02/18 03:32:55;;;;;;;5.17;1.70;;;;;;;;;;5031385;28;20243;-77
2023/02/18 03:35:25;;;;;;;5.53;1.60;;;;;;;;;;5013492;28;20273;-78
2023/02/18 03:38:02;;;;;;;6.10;1.90;;;;;;;;;;5023781;28;20215;-77
2023/02/18 03:40:29;;;;;;;6.27;1.70;;;;;;;;;;5023902;28;20284;-79
2023/02/18 03:42:56;;;;;;;4.60;1.87;;;;;;;;;;5010223;28;20224;-78
2023/02/18 03:45:24;;;;;;;4.20;1.70;;;;;;;;;;5012434;28;20212;-75
2023/02/18 03:47:50;;;;;;;6.73;1.67;;;;;;;;;;5027489;28;20222;-78
2023/02/18 03:50:20;;;;;;;5.00;1.47;;;;;;;;;;5012306;28;20231;-77
2023/02/18 03:52:46;;;;;;;5.03;1.80;;;;;;;;;;5039790;28;20693;-77
2023/02/18 03:55:13;;;;;;;4.37;1.40;;;;;;;;;;5005786;28;20227;-77
2023/02/18 03:57:44;;;;;;;3.93;1.47;;;;;;;;;;5014905;28;20256;-77
2023/02/18 04:00:10;;;;;;;3.90;1.43;;;;;;;;;;5032734;28;20220;-76
2023/02/18 04:02:39;;;;;;;4.57;1.50;;;;;;;;;;5015020;28;20234;-77
2023/02/18 04:05:13;;;;;;;4.30;1.57;;;;;;;;;;5032704;28;20303;-77
2023/02/18 04:07:41;;;;;;;2.60;1.23;;;;;;;;;;5037029;28;20223;-76
2023/02/18 04:10:07;;;;;;;4.90;1.40;;;;;;;;;;5013376;28;20249;-76
2023/02/18 04:12:33;;;;;;;4.27;1.50;;;;;;;;;;5005340;28;20230;-76
2023/02/18 04:14:58;;;;;;;4.53;1.57;;;;;;;;;;5018454;28;20301;-77
2023/02/18 04:17:26;;;;;;;5.23;1.67;;;;;;;;;;4988166;28;20242;-77
2023/02/18 04:19:51;;;;;;;6.47;1.87;;;;;;;;;;5010329;28;20230;-77
2023/02/18 04:22:19;;;;;;;5.97;1.47;;;;;;;;;;5009985;28;20557;-78
2023/02/18 04:24:47;;;;;;;4.30;1.70;;;;;;;;;;5007075;28;20231;-78
2023/02/18 04:27:12;;;;;;;6.40;1.60;;;;;;;;;;5005571;28;20220;-77
2023/02/18 04:29:43;;;;;;;3.93;1.17;;;;;;;;;;5029684;28;20626;-77
2023/02/18 04:32:08;;;;;;;5.03;1.30;;;;;;;;;;5027495;28;20239;-77
2023/02/18 04:34:36;;;;;;;5.13;1.37;;;;;;;;;;4994405;28;20230;-77
2023/02/18 04:37:02;;;;;;;8.07;2.00;;;;;;;;;;5027031;28;20224;-78
2023/02/18 04:39:32;;;;;;;3.03;1.23;;;;;;;;;;5014239;28;20288;-76
2023/02/18 04:41:58;;;;;;;4.07;1.40;;;;;;;;;;5009496;28;20227;-77
2023/02/18 04:44:28;;;;;;;3.53;1.33;;;;;;;;;;5044147;28;20223;-77
2023/02/18 04:46:53;;;;;;;6.17;1.40;;;;;;;;;;5035143;28;20216;-79
2023/02/18 04:49:22;;;;;;;6.67;1.17;;;;;;;;;;5040090;28;20663;-78
2023/02/18 04:51:49;;;;;;;5.43;1.60;;;;;;;;;;5026844;28;20231;-77
2023/02/18 04:54:15;;;;;;;3.40;1.20;;;;;;;;;;5006896;28;20225;-76
2023/02/18 04:56:43;;;;;;;4.80;1.30;;;;;;;;;;5007447;28;20638;-77
2023/02/18 04:59:08;;;;;;;4.37;1.43;;;;;;;;;;5034257;28;20224;-77
2023/02/18 05:01:36;;;;;;;4.30;1.50;;;;;;;;;;5006780;28;20841;-78
2023/02/18 05:04:06;;;;;;;5.60;1.43;;;;;;;;;;5022753;28;20321;-78
2023/02/18 05:06:38;;;;;;;8.27;1.60;;;;;;;;;;5028938;28;20215;-78
2023/02/18 05:09:08;;;;;;;7.03;1.53;;;;;;;;;;5013729;28;20219;-78
2023/02/18 05:11:36;;;;;;;9.47;1.40;;;;;;;;;;5008398;28;20223;-77
2023/02/18 05:14:04;;;;;;;7.10;1.70;;;;;;;;;;5009822;28;20219;-78
2023/02/18 05:16:32;;;;;;;2.90;1.40;;;;;;;;;;5020825;28;20230;-78
2023/02/18 05:18:57;;;;;;;6.00;1.77;;;;;;;;;;5014395;28;20666;-77
2023/02/18 05:21:27;;;;;;;7.57;1.90;;;;;;;;;;5003071;28;20215;-77
2023/02/18 05:23:53;;;;;;;4.30;1.40;;;;;;;;;;5003845;28;20228;-78
2023/02/18 05:26:21;;;;;;;4.07;1.53;;;;;;;;;;5005138;28;20229;-77
2023/02/18 05:28:46;;;;;;;5.47;1.47;;;;;;;;;;5006207;28;20250;-77
2023/02/18 05:31:11;;;;;;;7.03;1.90;;;;;;;;;;5018094;28;20220;-78
2023/02/18 05:33:42;;;;;;;7.47;1.90;;;;;;;;;;5008467;28;20303;-78
2023/02/18 05:36:09;;;;;;;6.33;1.83;;;;;;;;;;5039455;28;20238;-78
2023/02/18 05:38:37;;;;;;;6.60;1.60;;;;;;;;;;5004186;28;20228;-77
2023/02/18 05:41:06;;;;;;;11.63;1.70;;;;;;;;;;5008619;28;20226;-77
2023/02/18 05:44:28;;;;;;;4.87;1.47;;;;;;;;;;5011687;28;20228;-78
2023/02/18 05:46:21;;;;;;;3.73;1.70;;;;;;;;;;5026130;28;20224;-76
2023/02/18 05:48:49;;;;;;;3.67;1.33;;;;;;;;;;5033804;28;20689;-77
2023/02/18 05:51:17;;;;;;;5.57;1.33;;;;;;;;;;5008341;28;20297;-78
2023/02/18 05:53:47;;;;;;;6.07;2.03;;;;;;;;;;5029848;28;20215;-77
2023/02/18 05:56:13;;;;;;;4.43;1.77;;;;;;;;;;4994549;28;20220;-77
2023/02/18 05:58:38;;;;;;;6.33;1.47;;;;;;;;;;5016533;28;20226;-79
2023/02/18 06:01:04;;;;;;;10.27;1.90;;;;;;;;;;5013797;28;20211;-78
2023/02/18 06:03:31;;;;;;;4.63;1.57;;;;;;;;;;4993642;28;20235;-78
2023/02/18 06:05:57;;;;;;;5.33;1.33;;;;;;;;;;5032473;28;20211;-77
2023/02/18 06:08:25;;;;;;;4.97;1.33;;;;;;;;;;4992061;28;20226;-76
2023/02/18 06:10:53;;;;;;;5.63;1.83;;;;;;;;;;5024559;28;20277;-78
2023/02/18 06:13:21;;;;;;;9.00;2.20;;;;;;;;;;5026031;28;20246;-77
2023/02/18 06:15:52;;;;;;;5.83;1.53;;;;;;;;;;5038761;28;20227;-79
2023/02/18 06:18:21;;;;;;;6.53;1.77;;;;;;;;;;5013910;28;20211;-77
2023/02/18 06:20:50;;;;;;;8.70;1.90;;;;;;;;;;5011920;28;20565;-78
2023/02/18 06:23:17;;;;;;;7.03;1.83;;;;;;;;;;5011589;28;20696;-78
2023/02/18 06:25:49;;;;;;;5.43;1.63;;;;;;;;;;5025634;28;20231;-79
2023/02/18 06:28:15;;;;;;;4.83;2.00;;;;;;;;;;5032211;28;20224;-78
2023/02/18 06:30:46;;;;;;;5.30;2.23;;;;;;;;;;5002004;28;20215;-78
2023/02/18 06:33:11;;;;;;;5.10;2.20;;;;;;;;;;5026116;28;20643;-78
2023/02/18 06:35:37;;;;;;;6.97;2.43;;;;;;;;;;5029608;28;20235;-78
2023/02/18 06:38:04;;;;;;;7.30;2.23;;;;;;;;;;5026650;28;20689;-79
2023/02/18 06:40:35;;;;;;;7.73;2.50;;;;;;;;;;5010814;28;20231;-79
2023/02/18 06:43:00;;;;;;;6.00;2.30;;;;;;;;;;5013470;28;20235;-80
2023/02/18 06:45:26;;;;;;;6.63;2.37;;;;;;;;;;5026993;28;20226;-79
2023/02/18 06:47:54;;;;;;;7.67;2.50;;;;;;;;;;5010261;28;20245;-79
2023/02/18 06:50:21;;;;;;;4.77;1.97;;;;;;;;;;5028446;28;20249;-79
2023/02/18 06:52:49;;;;;;;7.90;2.20;;;;;;;;;;4999586;28;20207;-80
2023/02/18 06:55:17;;;;;;;7.37;2.40;;;;;;;;;;5010511;28;20273;-77
2023/02/18 06:57:42;;;;;;;7.83;2.60;;;;;;;;;;5029201;28;21027;-79
2023/02/18 07:00:09;;;;;;;7.70;2.53;;;;;;;;;;5014172;28;20236;-80
2023/02/18 07:02:39;;;;;;;7.47;3.37;;;;;;;;;;5046225;28;20233;-80
2023/02/18 07:05:09;;;;;;;6.93;3.90;;;;;;;;;;5026646;28;20219;-80
2023/02/18 07:07:37;;;;;;;6.93;3.07;;;;;;;;;;5014021;28;20254;-79
2023/02/18 07:10:04;;;;;;;4.40;2.40;;;;;;;;;;5012901;28;20239;-79
2023/02/18 07:12:37;;;;;;;5.67;2.63;;;;;;;;;;5034083;28;20989;-80
2023/02/18 07:15:02;;;;;;;6.57;2.53;;;;;;;;;;5025670;28;20224;-78
2023/02/18 07:17:33;;;;;;;4.23;2.37;;;;;;;;;;5034809;28;20306;-78
2023/02/18 07:20:01;;;;;;;6.90;2.60;;;;;;;;;;5011917;28;20226;-78
2023/02/18 07:22:27;;;;;;;7.13;2.87;;;;;;;;;;5029794;28;20222;-78
2023/02/18 07:24:55;;;;;;;7.43;2.83;;;;;;;;;;5030947;28;20211;-79
2023/02/18 07:27:21;;;;;;;5.57;2.73;;;;;;;;;;5023154;28;20312;-77
2023/02/18 07:29:51;;;;;;;5.63;2.50;;;;;;;;;;5020381;28;20223;-80
2023/02/18 07:32:19;;;;;;;7.60;2.57;;;;;;;;;;5029628;28;20212;-79
2023/02/18 07:34:47;;;;;;;4.63;2.23;;;;;;;;;;5028349;28;20215;-81
2023/02/18 07:37:12;;;;;;;5.27;2.50;;;;;;;;;;5028594;28;20310;-78
2023/02/18 07:39:43;;;;;;;4.40;2.20;;;;;;;;;;5012999;28;20324;-79
2023/02/18 07:42:14;;;;;;;4.67;2.27;;;;;;;;;;5009924;28;20248;-80
2023/02/18 07:44:42;;;;;;;5.27;2.47;;;;;;;;;;5028903;28;20696;-80
2023/02/18 07:47:09;;;;;;;4.37;2.23;;;;;;;;;;5012292;28;20220;-79
2023/02/18 07:49:35;;;;;;;4.17;2.53;;;;;;;;;;5027087;28;20232;-80
2023/02/18 07:52:00;;;;;;;4.67;2.30;;;;;;;;;;5036098;28;20744;-80
2023/02/18 07:54:28;;;;;;;5.33;3.00;;;;;;;;;;5038984;28;20231;-78
2023/02/18 07:56:56;;;;;;;5.70;2.73;;;;;;;;;;5010752;28;20226;-78
2023/02/18 07:59:22;;;;;;;4.37;2.87;;;;;;;;;;5013330;28;20333;-79
2023/02/18 08:01:49;;;;;;;5.43;3.30;;;;;;;;;;5013573;28;20223;-79
2023/02/18 08:04:17;;;;;;;5.60;2.70;;;;;;;;;;5039933;28;20351;-79
2023/02/18 08:06:46;;;;;;;4.70;2.90;;;;;;;;;;5009533;28;20234;-78
2023/02/18 08:09:18;;;;;;;3.90;2.83;;;;;;;;;;5002984;28;20227;-79
2023/02/18 08:11:48;;;;;;;3.00;2.70;;;;;;;;;;5044337;28;20219;-79
2023/02/18 08:14:16;;;;;;;3.43;2.93;;;;;;;;;;5014833;28;20361;-80
2023/02/18 08:16:44;;;;;;;3.60;2.93;;;;;;;;;;5009361;28;20230;-80
2023/02/18 08:19:09;;;;;;;4.27;2.93;;;;;;;;;;5030524;28;20275;-80
2023/02/18 08:21:40;;;;;;;4.17;2.90;;;;;;;;;;5025126;28;20603;-80
2023/02/18 08:24:07;;;;;;;3.70;2.90;;;;;;;;;;5012234;28;20321;-78
2023/02/18 08:26:35;;;;;;;4.47;3.03;;;;;;;;;;5026291;28;20224;-80
2023/02/18 08:29:03;;;;;;;3.20;2.90;;;;;;;;;;5038293;28;20216;-81
2023/02/18 08:31:31;;;;;;;3.03;2.70;;;;;;;;;;5027285;28;20689;-78
2023/02/18 08:34:00;;;;;;;4.13;3.00;;;;;;;;;;5020672;28;20219;-79
2023/02/18 08:36:26;;;;;;;3.77;3.07;;;;;;;;;;5040030;23;20235;-88
2023/02/18 08:38:52;;;;;;;3.97;3.03;;;;;;;;;;4990421;28;20295;-88
2023/02/18 08:41:17;;;;;;;3.00;2.77;;;;;;;;;;5001642;28;20282;-87
2023/02/18 08:43:50;;;;;;;3.57;3.23;;;;;;;;;;5006328;28;20278;-86
2023/02/18 08:46:15;;;;;;;4.20;2.90;;;;;;;;;;5004747;28;20354;-87
2023/02/18 08:48:44;;;;;;;3.30;2.80;;;;;;;;;;5001201;28;20232;-88
2023/02/18 08:51:19;;;;;;;3.80;2.90;;;;;;;;;;5020521;28;20807;-87
2023/02/18 08:54:00;;;;;;;2.70;2.50;;;;;;;;;;4999596;28;20234;-87
2023/02/18 08:56:28;;;;;;;2.27;2.07;;;;;;;;;;5000384;28;20758;-87
2023/02/18 08:58:59;;;;;;;2.70;2.50;;;;;;;;;;4997534;28;20220;-88
2023/02/18 09:01:39;;;;;;;3.03;2.73;;;;;;;;;;4968489;28;20266;-89
2023/02/18 09:04:20;;;;;;;2.50;2.30;;;;;;;;;;5011992;28;20232;-87
2023/02/18 09:07:06;;;;;;;2.27;2.17;;;;;;;;;;4985002;28;20245;-89
2023/02/18 09:09:35;;;;;;;3.27;2.97;;;;;;;;;;5015020;28;20216;-87
2023/02/18 09:12:00;;;;;;;2.90;2.70;;;;;;;;;;5001166;28;20373;-84
2023/02/18 09:14:26;;;;;;;3.50;3.13;;;;;;;;;;4994758;28;20208;-87
2023/02/18 09:16:51;;;;;;;3.77;3.47;;;;;;;;;;5016953;28;20208;-86
2023/02/18 09:19:19;;;;;;;3.97;3.67;;;;;;;;;;5018757;28;20227;-85
2023/02/18 09:21:47;;;;;;;3.60;3.30;;;;;;;;;;5028481;28;20228;-89
2023/02/18 09:24:12;;;;;;;3.33;3.03;;;;;;;;;;5008528;28;20247;-84
2023/02/18 09:26:39;;;;;;;3.20;3.00;;;;;;;;;;5033925;28;20236;-85
2023/02/18 09:29:04;;;;;;;4.90;4.47;;;;;;;;;;5017327;28;20226;-85
2023/02/18 09:31:33;;;;;;;4.20;3.80;;;;;;;;;;5022729;28;20216;-85
2023/02/18 09:34:02;;;;;;;4.53;4.20;;;;;;;;;;5015558;28;20296;-84
2023/02/18 09:36:28;;;;;;;5.63;5.10;;;;;;;;;;5025964;28;20211;-86
2023/02/18 09:38:56;;;;;;;5.20;4.80;;;;;;;;;;5036485;28;20250;-87
2023/02/18 09:41:38;;;;;;;4.83;4.43;;;;;;;;;;5003787;28;20212;-86
2023/02/18 09:44:34;;;;;;;4.80;4.40;;;;;;;;;;5013352;28;20678;-85
2023/02/18 09:47:02;;;;;;;5.00;4.60;;;;;;;;;;5009559;28;20252;-87
2023/02/18 09:49:33;;;;;;;4.40;4.10;;;;;;;;;;4998340;28;20243;-87
2023/02/18 09:52:22;;;;;;;4.73;4.33;;;;;;;;;;5012685;28;20789;-88
2023/02/18 09:54:49;;;;;;;4.40;4.00;;;;;;;;;;5024420;28;20233;-88
2023/02/18 09:57:39;;;;;;;5.10;4.60;;;;;;;;;;4977551;28;20278;-89
2023/02/18 10:00:14;;;;;;;5.47;4.27;;;;;;;;;;5008673;28;20239;-85
2023/02/18 10:02:44;;;;;;;4.47;4.07;;;;;;;;;;5004260;28;20230;-87
2023/02/18 10:05:14;;;;;;;4.70;4.30;;;;;;;;;;4979083;28;20242;-81
2023/02/18 10:07:42;;;;;;;4.20;3.90;;;;;;;;;;5020838;28;20250;-79
2023/02/18 10:10:20;;;;;;;4.30;3.87;;;;;;;;;;5019887;28;20284;-81
2023/02/18 10:12:45;;;;;;;3.60;3.30;;;;;;;;;;5004336;28;20251;-82
2023/02/18 10:15:20;;;;;;;2.90;2.70;;;;;;;;;;5004711;28;20221;-81
2023/02/18 10:17:57;;;;;;;2.77;2.57;;;;;;;;;;4989508;28;20235;-81
2023/02/18 10:20:26;;;;;;;1.93;1.83;;;;;;;;;;4998014;28;20227;-81
2023/02/18 10:22:52;;;;;;;2.17;2.07;;;;;;;;;;5020178;28;20232;-82
2023/02/18 10:25:19;;;;;;;2.00;1.87;;;;;;;;;;4996417;28;20266;-81
2023/02/18 10:27:47;;;;;;;2.30;1.87;;;;;;;;;;4997686;28;20242;-79
2023/02/18 10:30:22;;;;;;;2.40;2.20;;;;;;;;;;4989724;28;20224;-81
2023/02/18 10:32:48;;;;;;;2.00;1.90;;;;;;;;;;5005373;28;20227;-79
2023/02/18 10:35:18;;;;;;;1.90;1.80;;;;;;;;;;4989607;28;20278;-80
2023/02/18 10:38:02;;;;;;;1.53;1.43;;;;;;;;;;5006054;28;20696;-81
2023/02/18 10:40:52;;;;;;;1.27;1.17;;;;;;;;;;5016204;28;20223;-82
2023/02/18 10:43:44;;;;;;;1.50;1.40;;;;;;;;;;5036271;28;20232;-80
2023/02/18 10:46:22;;;;;;;1.57;1.47;;;;;;;;;;5027922;28;20231;-82
2023/02/18 10:49:08;;;;;;;1.47;1.37;;;;;;;;;;5033573;28;20231;-79
2023/02/18 10:51:34;;;;;;;1.30;1.30;;;;;;;;;;5038548;28;20224;-80
2023/02/18 10:54:00;;;;;;;1.30;1.30;;;;;;;;;;4987176;28;20289;-82
2023/02/18 10:56:50;;;;;;;1.63;1.50;;;;;;;;;;4999460;28;20228;-81
2023/02/18 10:59:23;;;;;;;2.03;1.80;;;;;;;;;;5006730;28;20231;-82
2023/02/18 11:02:16;;;;;;;1.87;1.77;;;;;;;;;;5022252;28;20230;-80
2023/02/18 11:04:43;;;;;;;1.53;1.43;;;;;;;;;;5023863;28;20238;-79
2023/02/18 11:07:15;;;;;;;1.90;1.80;;;;;;;;;;4987399;28;20237;-85
2023/02/18 11:09:48;;;;;;;2.13;1.93;;;;;;;;;;5015999;28;20232;-81
2023/02/18 11:12:16;;;;;;;2.73;2.50;;;;;;;;;;5018117;28;20726;-82
2023/02/18 11:14:46;;;;;;;2.47;2.23;;;;;;;;;;5002460;28;20220;-83
2023/02/18 11:17:20;;;;;;;3.20;2.90;;;;;;;;;;4983593;28;20780;-81
2023/02/18 11:19:56;;;;;;;2.60;2.40;;;;;;;;;;5000671;28;20362;-82
2023/02/18 11:22:23;;;;;;;2.93;2.63;;;;;;;;;;5020229;28;20280;-81
2023/02/18 11:24:53;;;;;;;2.47;2.30;;;;;;;;;;5011759;28;20220;-79
2023/02/18 11:27:32;;;;;;;2.23;2.13;;;;;;;;;;5011007;28;20271;-82
2023/02/18 11:30:05;;;;;;;3.17;2.60;;;;;;;;;;5029293;28;20539;-80
2023/02/18 11:32:33;;;;;;;3.30;3.00;;;;;;;;;;5010007;28;20231;-78
2023/02/18 11:35:04;;;;;;;2.70;2.50;;;;;;;;;;5026481;28;20327;-79
2023/02/18 11:37:38;;;;;;;2.30;2.13;;;;;;;;;;5024237;28;20291;-84
2023/02/18 11:40:05;;;;;;;2.60;2.40;;;;;;;;;;5004311;28;20786;-80
2023/02/18 11:42:30;;;;;;;3.67;3.03;;;;;;;;;;5004121;28;20220;-82
2023/02/18 11:44:57;;;;;;;3.20;2.90;;;;;;;;;;5003217;28;20758;-81
2023/02/18 11:47:35;;;;;;;3.90;3.60;;;;;;;;;;5019404;28;21293;-82
2023/02/18 11:50:09;;;;;;;3.47;3.10;;;;;;;;;;5002101;28;20228;-80
2023/02/18 11:52:56;;;;;;;3.10;2.77;;;;;;;;;;5015826;28;20243;-80
2023/02/18 11:55:31;;;;;;;3.57;3.27;;;;;;;;;;5005982;28;20239;-81
2023/02/18 11:58:02;;;;;;;3.47;3.17;;;;;;;;;;5039007;28;20216;-82
2023/02/18 12:00:51;;;;;;;2.80;2.60;;;;;;;;;;5000883;28;20208;-83
2023/02/18 12:03:29;;;;;;;2.70;2.50;;;;;;;;;;4991743;28;21064;-82
2023/02/18 12:05:57;;;;;;;2.53;2.33;;;;;;;;;;5000233;28;20306;-80
2023/02/18 12:08:35;;;;;;;2.70;2.50;;;;;;;;;;5020435;28;20232;-81
2023/02/18 12:11:08;;;;;;;1.87;1.77;;;;;;;;;;5021808;28;20964;-81
2023/02/18 12:13:36;;;;;;;2.17;2.00;;;;;;;;;;5000312;28;20307;-81
2023/02/18 12:16:14;;;;;;;2.57;2.37;;;;;;;;;;5001571;28;20220;-81
2023/02/18 12:18:49;;;;;;;2.50;2.40;;;;;;;;;;5017869;28;20224;-81
2023/02/18 12:21:32;;;;;;;2.03;1.93;;;;;;;;;;5033851;28;20698;-81
2023/02/18 12:24:19;;;;;;;1.80;1.70;;;;;;;;;;5001209;28;20692;-80
2023/02/18 12:26:59;;;;;;;1.80;1.70;;;;;;;;;;5011485;28;20234;-81
2023/02/18 12:29:45;;;;;;;3.33;3.03;;;;;;;;;;5016428;28;20284;-80
2023/02/18 12:32:34;;;;;;;1.87;1.77;;;;;;;;;;5000009;28;20243;-82
2023/02/18 12:35:12;;;;;;;2.10;2.00;;;;;;;;;;5000347;28;20219;-82
2023/02/18 12:37:59;;;;;;;1.33;1.33;;;;;;;;;;5013672;28;20279;-82
2023/02/18 12:40:45;;;;;;;1.20;1.20;;;;;;;;;;5014724;28;20228;-81
2023/02/18 12:43:36;;;;;;;2.53;1.30;;;;;;;;;;5016461;28;20545;-79
2023/02/18 12:46:04;;;;;;;1.60;1.50;;;;;;;;;;5016118;28;20227;-81
2023/02/18 12:49:18;;;;;;;2.23;1.67;;;;;;;;;;5030757;28;20216;-82
2023/02/18 12:52:39;;;;;;;1.50;1.40;;;;;;;;;;4983945;28;20302;-80
2023/02/18 12:55:22;;;;;;;1.10;1.10;;;;;;;;;;4975541;28;20264;-79
2023/02/18 12:58:23;;;;;;;1.57;1.47;;;;;;;;;;5022292;28;21078;-81
2023/02/18 13:01:07;;;;;;;1.40;1.30;;;;;;;;;;4925071;29;20235;-82
2023/02/18 13:04:02;;;;;;;1.73;1.63;;;;;;;;;;5027740;28;20228;-81
2023/02/18 13:06:47;;;;;;;1.37;1.30;;;;;;;;;;4994072;28;20231;-79
2023/02/18 13:09:17;;;;;;;4.47;1.80;;;;;;;;;;5023528;28;20228;-81
2023/02/18 13:11:49;;;;;;;1.37;1.27;;;;;;;;;;5031853;28;20224;-79
2023/02/18 13:14:35;;;;;;;1.57;1.47;;;;;;;;;;5029952;28;20676;-81
2023/02/18 13:17:00;;;;;;;1.93;1.70;;;;;;;;;;5019894;28;20576;-80
2023/02/18 13:19:26;;;;;;;1.80;1.70;;;;;;;;;;5002779;28;20219;-81
2023/02/18 13:21:58;;;;;;;1.80;1.70;;;;;;;;;;4992756;28;20588;-81
2023/02/18 13:24:34;;;;;;;2.00;1.73;;;;;;;;;;4990441;28;20224;-79
2023/02/18 13:27:24;;;;;;;1.83;1.73;;;;;;;;;;5022887;28;20224;-78
2023/02/18 13:30:11;;;;;;;1.87;1.77;;;;;;;;;;5009052;28;20212;-81
2023/02/18 13:32:38;;;;;;;2.30;1.77;;;;;;;;;;5014475;28;20228;-80
2023/02/18 13:35:26;;;;;;;1.80;1.70;;;;;;;;;;5017913;28;20285;-80
2023/02/18 13:37:54;;;;;;;1.83;1.73;;;;;;;;;;5038835;28;20277;-82
2023/02/18 13:40:26;;;;;;;2.07;1.87;;;;;;;;;;5035724;28;20219;-79
2023/02/18 13:42:52;;;;;;;3.93;2.10;;;;;;;;;;4984995;28;20262;-78
2023/02/18 13:45:25;;;;;;;2.33;2.00;;;;;;;;;;5001126;28;20235;-81
2023/02/18 13:47:53;;;;;;;2.53;2.33;;;;;;;;;;5020124;28;20306;-81
2023/02/18 13:50:27;;;;;;;3.03;2.53;;;;;;;;;;5001564;28;20259;-81
2023/02/18 13:53:05;;;;;;;2.37;2.17;;;;;;;;;;5004180;28;20214;-82
2023/02/18 13:56:12;;;;;;;3.20;2.70;;;;;;;;;;5026772;28;20227;-79
2023/02/18 13:58:42;;;;;;;3.90;3.07;;;;;;;;;;5034266;28;20224;-81
2023/02/18 14:01:11;;;;;;;3.07;2.63;;;;;;;;;;5016537;28;20224;-80
2023/02/18 14:03:56;;;;;;;1.93;1.63;;;;;;;;;;5035537;28;20231;-80
2023/02/18 14:06:24;;;;;;;0.00;0.00;;;;;;;;;;5019229;28;20220;-80
2023/02/18 14:08:50;;;;;;;0.10;0.10;;;;;;;;;;5003786;28;20234;-80
2023/02/18 14:11:16;;;;;;;0.10;0.10;;;;;;;;;;4992293;28;20216;-80
2023/02/18 14:13:53;;;;;;;0.10;0.10;;;;;;;;;;5003283;28;20243;-79
2023/02/18 14:16:21;;;;;;;0.40;0.40;;;;;;;;;;5014065;28;20228;-81
2023/02/18 14:19:01;;;;;;;0.17;0.17;;;;;;;;;;5016271;28;20756;-80
2023/02/18 14:21:39;;;;;;;0.13;0.13;;;;;;;;;;5031994;28;20246;-80
2023/02/18 14:24:08;;;;;;;0.10;0.10;;;;;;;;;;5009686;28;20339;-80
2023/02/18 14:26:51;;;;;;;0.10;0.10;;;;;;;;;;4990873;28;20228;-79
2023/02/18 14:29:28;;;;;;;0.90;0.90;;;;;;;;;;5005227;28;20220;-79
2023/02/18 14:31:58;;;;;;;0.40;0.40;;;;;;;;;;5008522;28;20246;-78
2023/02/18 14:34:41;;;;;;;0.10;0.10;;;;;;;;;;5005698;28;20220;-79
2023/02/18 14:37:57;;;;;;;0.20;0.20;;;;;;;;;;5038280;28;20723;-88
2023/02/18 14:40:44;;;;;;;0.00;0.00;;;;;;;;;;5000994;28;20224;-88
2023/02/18 14:43:19;;;;;;;0.00;0.00;;;;;;;;;;5021188;28;20239;-87
2023/02/18 14:46:07;;;;;;;0.20;0.20;;;;;;;;;;5015503;28;20235;-89
2023/02/18 14:48:47;;;;;;;0.10;0.10;;;;;;;;;;5017230;28;20232;-88
2023/02/18 14:51:18;;;;;;;0.60;0.60;;;;;;;;;;5011533;28;20227;-88
2023/02/18 14:53:44;;;;;;;0.10;0.10;;;;;;;;;;5001523;28;20208;-90
2023/02/18 14:56:13;;;;;;;1.30;0.73;;;;;;;;;;5002312;28;20228;-84
2023/02/18 14:58:55;;;;;;;0.00;0.00;;;;;;;;;;5016664;28;20719;-87
2023/02/18 15:01:26;;;;;;;0.10;0.10;;;;;;;;;;4998790;28;20599;-86
2023/02/18 15:03:52;;;;;;;0.10;0.10;;;;;;;;;;5007007;28;20288;-85
2023/02/18 15:06:36;;;;;;;0.10;0.10;;;;;;;;;;5015816;28;20221;-87
2023/02/18 15:09:16;;;;;;;0.10;0.10;;;;;;;;;;5002495;28;20215;-88
2023/02/18 15:11:56;;;;;;;0.10;0.10;;;;;;;;;;5000003;28;20223;-87
2023/02/18 15:14:44;;;;;;;0.10;0.10;;;;;;;;;;4984273;28;20223;-89
2023/02/18 15:17:16;;;;;;;0.10;0.10;;;;;;;;;;5012164;28;20662;-86